Time;durP1;ratioP1;P1;durP2;ratioP2;P2;SDS_P1;SDS_P2;PMS_P1;PMS_P2;Temp;Humidity;BMP_temperature;BMP_pressure;BME280_temperature;BME280_humidity;BME280_pressure;Samples;Min_cycle;Max_cycle;Signal;HPM_P1;HPM_P2
2021/05/26 00:00:53;;;;;;;2.10;1.00;;;12.90;35.00;;;;;;5191432;27;20654;-80
2021/05/26 00:03:20;;;;;;;4.47;1.70;;;12.90;35.10;;;;;;5195421;27;20210;-81
2021/05/26 00:05:47;;;;;;;3.42;1.58;;;12.90;35.00;;;;;;5195575;27;20226;-80
2021/05/26 00:08:14;;;;;;;2.13;1.10;;;12.90;35.30;;;;;;5193341;27;20245;-80
2021/05/26 00:10:41;;;;;;;1.67;1.42;;;12.90;35.70;;;;;;5189883;27;20590;-79
2021/05/26 00:13:07;;;;;;;1.50;1.40;;;12.80;36.00;;;;;;5190476;27;20218;-79
2021/05/26 00:15:35;;;;;;;2.33;1.15;;;12.80;36.60;;;;;;5193792;27;20206;-81
2021/05/26 00:18:01;;;;;;;4.05;1.25;;;12.80;37.10;;;;;;5185239;27;20649;-79
2021/05/26 00:20:28;;;;;;;5.95;2.22;;;12.80;37.70;;;;;;5181866;27;20208;-80
2021/05/26 00:22:54;;;;;;;2.70;1.80;;;12.70;38.10;;;;;;5183958;27;20219;-79
2021/05/26 00:25:20;;;;;;;2.45;1.20;;;12.60;38.30;;;;;;5185311;27;20226;-78
2021/05/26 00:27:48;;;;;;;3.08;1.20;;;12.60;38.90;;;;;;5185736;27;20202;-79
2021/05/26 00:30:15;;;;;;;7.65;1.60;;;12.50;39.00;;;;;;5185829;27;20730;-79
2021/05/26 00:32:42;;;;;;;1.98;1.40;;;12.40;39.20;;;;;;5183633;27;20218;-79
2021/05/26 00:35:10;;;;;;;2.00;1.75;;;12.30;39.60;;;;;;5182812;27;20222;-79
2021/05/26 00:37:36;;;;;;;2.17;1.23;;;12.30;40.00;;;;;;5195354;27;20239;-77
2021/05/26 00:40:04;;;;;;;5.25;1.40;;;12.30;40.20;;;;;;5200972;27;20192;-77
2021/05/26 00:42:31;;;;;;;2.00;1.55;;;12.20;40.30;;;;;;5201405;27;20214;-79
2021/05/26 00:44:58;;;;;;;2.90;1.60;;;12.20;40.70;;;;;;5199384;27;20237;-79
2021/05/26 00:47:42;;;;;;;2.30;1.27;;;12.30;41.60;;;;;;5186233;27;20241;-79
2021/05/26 00:50:12;;;;;;;3.75;1.40;;;12.30;41.30;;;;;;5184908;27;20190;-79
2021/05/26 00:52:38;;;;;;;1.40;1.20;;;12.30;41.60;;;;;;5183805;27;20230;-79
2021/05/26 00:55:06;;;;;;;3.38;1.30;;;12.30;41.60;;;;;;5180957;27;20202;-79
2021/05/26 00:57:33;;;;;;;2.50;1.23;;;12.40;41.70;;;;;;5180684;27;20568;-79
2021/05/26 01:00:00;;;;;;;2.47;1.48;;;12.40;41.70;;;;;;5181728;27;20319;-79
2021/05/26 01:02:27;;;;;;;1.30;0.80;;;12.40;41.70;;;;;;5184072;27;20242;-78
2021/05/26 01:04:54;;;;;;;1.75;1.15;;;12.40;41.70;;;;;;5183952;27;20225;-79
2021/05/26 01:07:20;;;;;;;4.80;1.40;;;12.50;41.80;;;;;;5183910;27;20573;-80
2021/05/26 01:09:47;;;;;;;2.25;1.02;;;12.50;41.80;;;;;;5180473;27;20242;-77
2021/05/26 01:12:14;;;;;;;3.58;1.20;;;12.50;41.80;;;;;;5180616;27;20250;-79
2021/05/26 01:14:40;;;;;;;1.13;0.95;;;12.60;41.90;;;;;;5181385;27;20456;-77
2021/05/26 01:17:07;;;;;;;2.15;1.20;;;12.60;41.90;;;;;;5179652;27;20259;-79
2021/05/26 01:19:33;;;;;;;1.58;0.80;;;12.60;41.90;;;;;;5177415;27;20281;-79
2021/05/26 01:22:01;;;;;;;1.80;1.08;;;12.70;42.00;;;;;;5178905;27;20305;-80
2021/05/26 01:24:27;;;;;;;1.60;0.70;;;12.70;42.00;;;;;;5177733;27;20685;-80
2021/05/26 01:26:53;;;;;;;3.40;2.20;;;12.70;42.00;;;;;;5177982;27;20669;-80
2021/05/26 01:29:20;;;;;;;2.67;0.88;;;12.70;42.00;;;;;;5180056;27;20206;-80
2021/05/26 01:31:46;;;;;;;4.20;1.00;;;12.70;42.00;;;;;;5186300;27;20230;-80
2021/05/26 01:34:13;;;;;;;1.40;1.30;;;12.70;41.80;;;;;;5186682;27;20226;-81
2021/05/26 01:36:41;;;;;;;2.45;1.10;;;12.70;41.90;;;;;;5195566;27;20194;-81
2021/05/26 01:39:10;;;;;;;1.15;0.80;;;12.70;41.60;;;;;;5194861;27;20217;-80
2021/05/26 01:41:36;;;;;;;2.35;1.13;;;12.70;41.10;;;;;;5189895;27;20198;-80
2021/05/26 01:44:03;;;;;;;1.38;0.90;;;12.80;41.00;;;;;;5185320;27;20275;-78
2021/05/26 01:46:30;;;;;;;1.05;0.73;;;12.80;40.90;;;;;;5185215;27;20219;-79
2021/05/26 01:48:56;;;;;;;2.95;0.73;;;12.80;41.20;;;;;;5185488;27;20202;-81
2021/05/26 01:51:23;;;;;;;1.88;0.90;;;12.80;41.10;;;;;;5184811;27;20206;-80
2021/05/26 01:53:51;;;;;;;2.90;1.00;;;12.90;40.80;;;;;;5185187;27;20206;-79
2021/05/26 01:56:20;;;;;;;2.60;0.93;;;12.80;41.10;;;;;;5184695;27;20569;-80
2021/05/26 01:58:49;;;;;;;2.53;0.95;;;12.90;42.20;;;;;;5189992;27;20202;-81
2021/05/26 02:01:17;;;;;;;1.17;1.00;;;12.80;45.30;;;;;;5197127;27;20202;-80
2021/05/26 02:03:44;;;;;;;1.58;0.95;;;12.40;46.60;;;;;;5195159;27;20233;-83
2021/05/26 02:06:12;;;;;;;2.83;1.10;;;12.30;50.20;;;;;;5198603;27;20198;-83
2021/05/26 02:08:39;;;;;;;1.83;1.08;;;12.10;51.20;;;;;;5196436;27;20201;-83
2021/05/26 02:13:52;;;;;;;1.48;1.15;;;11.90;53.90;;;;;;5193823;27;20593;-80
2021/05/26 02:16:19;;;;;;;2.95;1.20;;;11.90;55.90;;;;;;5178488;27;20297;-80
2021/05/26 02:18:45;;;;;;;2.40;1.13;;;11.90;57.20;;;;;;5186033;27;20202;-81
2021/05/26 02:21:12;;;;;;;1.52;1.23;;;11.80;56.50;;;;;;5187330;27;20206;-80
2021/05/26 02:23:38;;;;;;;4.57;1.73;;;11.80;58.60;;;;;;5190796;27;20229;-80
2021/05/26 02:26:04;;;;;;;1.70;1.10;;;11.80;60.30;;;;;;5193541;27;20303;-81
2021/05/26 02:28:31;;;;;;;1.75;1.30;;;11.80;60.30;;;;;;5194200;27;20240;-81
2021/05/26 02:30:58;;;;;;;4.45;1.08;;;11.80;60.30;;;;;;5196945;27;20206;-81
2021/05/26 02:33:25;;;;;;;2.65;1.30;;;11.80;60.30;;;;;;5200791;27;20229;-79
2021/05/26 02:35:51;;;;;;;4.30;1.60;;;11.80;60.30;;;;;;5200117;27;20269;-81
2021/05/26 02:38:18;;;;;;;5.22;1.05;;;11.80;60.30;;;;;;5197348;27;20225;-81
2021/05/26 02:40:44;;;;;;;2.75;0.90;;;11.80;59.40;;;;;;5203396;27;20194;-83
2021/05/26 02:43:11;;;;;;;1.88;1.15;;;11.90;58.40;;;;;;5202953;27;20217;-82
2021/05/26 02:45:38;;;;;;;2.63;1.10;;;11.90;60.00;;;;;;5202918;27;20218;-82
2021/05/26 02:48:06;;;;;;;1.50;1.40;;;11.90;59.30;;;;;;5202943;27;20213;-80
2021/05/26 02:50:33;;;;;;;1.92;1.00;;;11.90;59.00;;;;;;5203590;27;20205;-82
2021/05/26 02:53:00;;;;;;;1.98;1.20;;;11.90;57.80;;;;;;5203092;27;20245;-79
2021/05/26 02:55:27;;;;;;;2.15;1.10;;;11.90;56.70;;;;;;5203083;27;20209;-80
2021/05/26 02:57:54;;;;;;;1.08;0.80;;;11.90;55.80;;;;;;5203181;27;20225;-81
2021/05/26 03:00:22;;;;;;;2.05;1.15;;;11.90;57.20;;;;;;5203123;27;20202;-79
2021/05/26 03:02:49;;;;;;;2.50;1.13;;;11.90;56.70;;;;;;5202897;27;20242;-79
2021/05/26 03:05:18;;;;;;;1.85;0.93;;;11.90;56.00;;;;;;5203090;27;20232;-81
2021/05/26 03:07:45;;;;;;;2.80;1.15;;;12.00;56.70;;;;;;5202873;27;20250;-80
2021/05/26 03:10:14;;;;;;;4.30;1.10;;;12.00;55.60;;;;;;5202826;27;20199;-81
2021/05/26 03:12:40;;;;;;;2.35;1.10;;;12.00;55.10;;;;;;5203092;27;20222;-79
2021/05/26 03:15:09;;;;;;;2.55;1.15;;;12.00;56.30;;;;;;5200911;27;20218;-78
2021/05/26 03:17:36;;;;;;;3.40;1.10;;;12.00;55.60;;;;;;5203296;27;20206;-79
2021/05/26 03:20:04;;;;;;;3.25;1.15;;;12.00;55.80;;;;;;5202920;27;20187;-80
2021/05/26 03:22:33;;;;;;;2.30;1.05;;;12.00;55.80;;;;;;5203284;27;20237;-79
2021/05/26 03:25:00;;;;;;;1.90;0.98;;;12.00;55.80;;;;;;5203098;27;20273;-79
2021/05/26 03:27:33;;;;;;;4.07;1.20;;;12.10;55.90;;;;;;5203278;27;20261;-78
2021/05/26 03:30:00;;;;;;;3.33;1.02;;;12.10;56.30;;;;;;5202841;27;20277;-78
2021/05/26 03:32:27;;;;;;;2.83;0.90;;;12.10;55.90;;;;;;5202608;27;20223;-79
2021/05/26 03:34:53;;;;;;;2.00;1.30;;;12.10;55.90;;;;;;5202905;27;20185;-78
2021/05/26 03:37:20;;;;;;;4.15;1.20;;;12.10;55.90;;;;;;5201986;27;20183;-78
2021/05/26 03:39:47;;;;;;;2.90;2.38;;;12.20;56.30;;;;;;5203007;27;20208;-79
2021/05/26 03:42:14;;;;;;;2.72;1.00;;;12.20;56.00;;;;;;5202648;27;20210;-80
2021/05/26 03:44:40;;;;;;;3.03;1.48;;;12.20;55.90;;;;;;5202109;27;20202;-79
2021/05/26 03:47:06;;;;;;;4.22;1.10;;;12.10;58.00;;;;;;5200856;27;20510;-78
2021/05/26 03:49:33;;;;;;;3.75;1.38;;;12.10;58.20;;;;;;5201906;27;20229;-79
2021/05/26 03:51:59;;;;;;;6.05;1.73;;;12.00;57.90;;;;;;5202062;27;20206;-79
2021/05/26 03:54:26;;;;;;;1.70;1.35;;;12.10;58.10;;;;;;5198784;27;20194;-79
2021/05/26 03:56:53;;;;;;;3.70;1.20;;;12.00;58.80;;;;;;5184879;27;20237;-80
2021/05/26 03:59:20;;;;;;;2.17;1.20;;;12.00;60.50;;;;;;5184894;27;20217;-80
2021/05/26 04:01:46;;;;;;;2.85;1.08;;;11.90;62.40;;;;;;5183785;27;20253;-80
2021/05/26 04:04:12;;;;;;;2.25;1.55;;;11.80;64.40;;;;;;5195702;27;20198;-81
2021/05/26 04:06:39;;;;;;;2.90;1.20;;;11.70;68.50;;;;;;5201864;27;20289;-82
2021/05/26 04:09:05;;;;;;;2.63;1.40;;;11.60;72.50;;;;;;5181498;27;20453;-83
2021/05/26 04:11:32;;;;;;;3.20;1.50;;;11.40;75.50;;;;;;5180404;27;20206;-83
2021/05/26 04:13:59;;;;;;;4.35;1.23;;;11.20;78.60;;;;;;5180066;27;20199;-84
2021/05/26 04:16:25;;;;;;;5.85;1.88;;;11.10;81.50;;;;;;5179853;27;20202;-82
2021/05/26 04:18:52;;;;;;;2.10;1.40;;;11.10;84.50;;;;;;5179667;27;20230;-83
2021/05/26 04:21:18;;;;;;;1.80;1.40;;;11.00;85.60;;;;;;5179667;27;20297;-84
2021/05/26 04:23:45;;;;;;;4.53;1.90;;;11.00;86.20;;;;;;5179348;27;20621;-83
2021/05/26 04:26:11;;;;;;;2.47;2.15;;;11.00;86.50;;;;;;5183618;27;20249;-85
2021/05/26 04:28:42;;;;;;;3.55;1.50;;;10.90;87.80;;;;;;5198233;27;20193;-84
2021/05/26 04:31:10;;;;;;;2.08;1.40;;;10.90;89.70;;;;;;5186037;27;20405;-85
2021/05/26 04:33:37;;;;;;;1.45;1.33;;;10.80;90.70;;;;;;5178748;27;20215;-87
2021/05/26 04:36:04;;;;;;;2.65;1.60;;;10.90;91.60;;;;;;5180096;27;20198;-85
2021/05/26 04:38:30;;;;;;;5.43;2.10;;;10.90;91.60;;;;;;5179802;27;20210;-83
2021/05/26 04:40:57;;;;;;;1.95;1.50;;;10.80;91.80;;;;;;5162205;27;20238;-84
2021/05/26 04:43:23;;;;;;;2.60;1.45;;;10.80;92.70;;;;;;5158246;27;20215;-84
2021/05/26 04:45:50;;;;;;;4.78;1.65;;;10.80;93.40;;;;;;5158245;27;20219;-84
2021/05/26 04:48:17;;;;;;;2.95;1.48;;;10.80;93.90;;;;;;5164035;27;20209;-83
2021/05/26 04:50:44;;;;;;;8.10;1.90;;;10.80;94.10;;;;;;5164538;27;20262;-86
2021/05/26 04:53:10;;;;;;;2.25;1.40;;;10.70;94.10;;;;;;5174553;27;20740;-84
2021/05/26 04:55:39;;;;;;;6.40;1.92;;;10.70;95.10;;;;;;5171351;27;20804;-84
2021/05/26 04:58:08;;;;;;;4.35;3.15;;;10.70;95.20;;;;;;5162376;27;20270;-83
2021/05/26 05:00:34;;;;;;;2.65;1.70;;;10.70;95.50;;;;;;5159612;27;20286;-83
2021/05/26 05:03:01;;;;;;;3.00;1.50;;;10.70;96.20;;;;;;5169786;27;20306;-84
2021/05/26 05:05:31;;;;;;;6.20;1.83;;;10.70;96.70;;;;;;5178120;27;20263;-85
2021/05/26 05:07:58;;;;;;;4.63;2.25;;;10.60;96.30;;;;;;5179407;27;20190;-87
2021/05/26 05:10:25;;;;;;;4.97;2.22;;;10.60;96.90;;;;;;5180652;27;20193;-82
2021/05/26 05:12:51;;;;;;;2.50;1.88;;;10.60;97.20;;;;;;5180514;27;20210;-85
2021/05/26 05:15:18;;;;;;;1.92;1.70;;;10.60;97.60;;;;;;5176815;27;20199;-84
2021/05/26 05:17:49;;;;;;;4.50;1.88;;;10.50;97.50;;;;;;5158531;27;20211;-83
2021/05/26 05:20:19;;;;;;;5.30;1.98;;;10.60;98.20;;;;;;5158705;27;20283;-84
2021/05/26 05:22:46;;;;;;;5.03;2.63;;;10.60;98.50;;;;;;5161684;27;20251;-83
2021/05/26 05:25:13;;;;;;;6.38;1.75;;;10.70;98.70;;;;;;5162551;27;20290;-83
2021/05/26 05:27:40;;;;;;;3.10;1.80;;;10.60;98.30;;;;;;5167283;27;20214;-84
2021/05/26 05:30:07;;;;;;;5.25;1.85;;;10.70;98.70;;;;;;5174456;27;20207;-85
2021/05/26 05:32:34;;;;;;;4.57;1.80;;;10.70;98.70;;;;;;5176137;27;20211;-84
2021/05/26 05:35:01;;;;;;;4.80;1.90;;;10.70;98.70;;;;;;5171361;27;20208;-83
2021/05/26 05:37:28;;;;;;;4.53;2.63;;;10.70;98.70;;;;;;5159130;27;20196;-83
2021/05/26 05:39:55;;;;;;;5.45;2.00;;;10.70;98.80;;;;;;5159330;27;20569;-83
2021/05/26 05:42:21;;;;;;;3.05;1.75;;;10.70;99.30;;;;;;5159783;27;20281;-83
2021/05/26 05:44:48;;;;;;;3.97;1.90;;;10.60;99.40;;;;;;5160725;27;20229;-85
2021/05/26 05:47:15;;;;;;;1.90;1.60;;;10.70;99.50;;;;;;5169891;27;20195;-86
2021/05/26 05:49:41;;;;;;;2.00;1.55;;;10.70;99.40;;;;;;5178817;27;20202;-87
2021/05/26 05:52:10;;;;;;;7.68;3.15;;;10.70;99.40;;;;;;5177845;27;20219;-81
2021/05/26 05:54:37;;;;;;;5.93;2.00;;;10.70;99.10;;;;;;5178301;27;20218;-86
2021/05/26 05:57:06;;;;;;;2.78;1.90;;;10.60;99.00;;;;;;5178632;27;20226;-84
2021/05/26 05:59:33;;;;;;;4.43;2.30;;;10.60;99.50;;;;;;5176175;27;20195;-83
2021/05/26 06:01:59;;;;;;;3.85;1.92;;;10.60;99.90;;;;;;5172450;27;20206;-86
2021/05/26 06:04:26;;;;;;;4.55;2.22;;;10.60;99.60;;;;;;5174335;27;20222;-87
2021/05/26 06:06:53;;;;;;;3.35;1.67;;;10.60;99.90;;;;;;5174895;27;20227;-85
2021/05/26 06:09:20;;;;;;;3.65;1.95;;;10.60;99.90;;;;;;5179106;27;20187;-88
2021/05/26 06:11:47;;;;;;;3.90;1.67;;;10.70;99.90;;;;;;5178281;27;20198;-85
2021/05/26 06:14:14;;;;;;;6.35;2.33;;;10.70;99.90;;;;;;5178990;27;20218;-83
2021/05/26 06:16:41;;;;;;;4.25;2.10;;;10.80;99.90;;;;;;5183223;22;20175;-77
2021/05/26 06:19:08;;;;;;;4.13;1.83;;;10.80;99.90;;;;;;5099301;28;20209;-79
2021/05/26 06:21:34;;;;;;;3.55;2.08;;;10.90;99.90;;;;;;5104715;28;20434;-80
2021/05/26 06:24:02;;;;;;;2.20;1.65;;;10.90;99.90;;;;;;5099983;28;20205;-78
2021/05/26 06:26:31;;;;;;;6.32;2.00;;;10.90;99.70;;;;;;5099318;28;20238;-78
2021/05/26 06:28:58;;;;;;;2.38;1.77;;;10.90;99.40;;;;;;5096885;28;20666;-78
2021/05/26 06:31:25;;;;;;;4.30;1.73;;;10.90;99.40;;;;;;5098037;28;20216;-78
2021/05/26 06:33:52;;;;;;;4.20;1.75;;;10.90;99.20;;;;;;5096030;28;20208;-79
2021/05/26 06:36:18;;;;;;;2.20;1.60;;;10.90;98.80;;;;;;5098130;28;20718;-78
2021/05/26 06:38:45;;;;;;;6.10;2.15;;;10.90;98.80;;;;;;5095944;28;20249;-79
2021/05/26 06:41:11;;;;;;;6.70;2.15;;;10.90;98.90;;;;;;5100383;28;20231;-80
2021/05/26 06:43:39;;;;;;;7.13;1.98;;;11.00;98.80;;;;;;5093735;28;20224;-79
2021/05/26 06:46:06;;;;;;;4.60;2.15;;;10.90;98.80;;;;;;5113732;28;20225;-81
2021/05/26 06:48:33;;;;;;;4.93;2.00;;;10.90;98.70;;;;;;5116505;28;20222;-84
2021/05/26 06:51:00;;;;;;;5.13;2.08;;;11.00;98.70;;;;;;5116681;28;20223;-84
2021/05/26 06:53:26;;;;;;;3.60;1.95;;;11.00;98.70;;;;;;5112116;28;20208;-81
2021/05/26 06:55:53;;;;;;;9.15;1.98;;;11.00;98.40;;;;;;5084690;28;20198;-81
2021/05/26 06:58:20;;;;;;;8.60;2.45;;;11.00;98.00;;;;;;5074707;28;20234;-81
2021/05/26 07:00:46;;;;;;;4.15;2.08;;;11.00;98.20;;;;;;5077368;28;20677;-80
2021/05/26 07:03:13;;;;;;;4.25;1.50;;;11.00;97.90;;;;;;5082338;28;20232;-79
2021/05/26 07:05:40;;;;;;;3.58;1.60;;;11.00;97.10;;;;;;5092808;28;20240;-80
2021/05/26 07:08:07;;;;;;;2.95;1.75;;;10.90;96.90;;;;;;5092336;28;20226;-79
2021/05/26 07:10:34;;;;;;;4.53;1.73;;;11.00;97.20;;;;;;5091883;28;20194;-79
2021/05/26 07:13:00;;;;;;;6.55;2.20;;;10.90;97.00;;;;;;5093312;28;20202;-79
2021/05/26 07:15:27;;;;;;;2.53;1.50;;;11.00;97.50;;;;;;5091262;28;20205;-78
2021/05/26 07:17:55;;;;;;;6.10;2.10;;;10.90;96.80;;;;;;5093296;28;20237;-79
2021/05/26 07:20:22;;;;;;;2.63;1.50;;;10.90;97.10;;;;;;5093222;28;20677;-79
2021/05/26 07:22:49;;;;;;;5.25;2.25;;;10.90;95.70;;;;;;5087565;28;20226;-79
2021/05/26 07:25:15;;;;;;;4.38;2.35;;;10.90;95.30;;;;;;5091276;28;20221;-80
2021/05/26 07:27:42;;;;;;;6.55;2.03;;;11.00;95.80;;;;;;5089444;28;20230;-79
2021/05/26 07:30:09;;;;;;;1.60;1.50;;;11.10;96.30;;;;;;5094899;28;20224;-81
2021/05/26 07:32:36;;;;;;;4.80;1.85;;;11.10;96.50;;;;;;5099072;28;20213;-81
2021/05/26 07:35:03;;;;;;;3.55;1.83;;;11.20;96.80;;;;;;5098986;28;20186;-80
2021/05/26 07:37:30;;;;;;;6.80;2.97;;;11.20;95.40;;;;;;5098672;28;20218;-82
2021/05/26 07:39:57;;;;;;;4.88;1.80;;;11.30;95.60;;;;;;5093045;28;20619;-80
2021/05/26 07:42:24;;;;;;;3.92;1.83;;;11.30;95.90;;;;;;5095109;28;20564;-80
2021/05/26 07:44:50;;;;;;;2.45;1.65;;;11.40;95.50;;;;;;5096263;28;20205;-78
2021/05/26 07:47:17;;;;;;;5.65;1.83;;;11.40;95.50;;;;;;5094229;28;20264;-79
2021/05/26 07:49:43;;;;;;;3.28;2.38;;;11.40;95.50;;;;;;5096473;28;20202;-80
2021/05/26 07:52:13;;;;;;;5.47;2.35;;;11.50;96.30;;;;;;5093528;28;20213;-80
2021/05/26 07:54:41;;;;;;;5.25;2.55;;;11.50;96.10;;;;;;5094864;28;20214;-82
2021/05/26 07:57:11;;;;;;;3.10;2.40;;;11.60;96.00;;;;;;5092578;28;20233;-82
2021/05/26 07:59:38;;;;;;;3.28;2.10;;;11.50;95.80;;;;;;5092585;28;20206;-82
2021/05/26 08:02:08;;;;;;;3.40;2.22;;;11.50;95.50;;;;;;5093124;28;20206;-81
2021/05/26 08:04:35;;;;;;;3.65;2.40;;;11.40;93.90;;;;;;5096244;28;20213;-80
2021/05/26 08:07:01;;;;;;;3.03;1.90;;;11.40;93.90;;;;;;5096971;28;20238;-82
2021/05/26 08:09:28;;;;;;;4.75;1.52;;;11.30;92.70;;;;;;5097813;28;20202;-80
2021/05/26 08:11:54;;;;;;;1.95;1.20;;;11.30;92.60;;;;;;5097291;28;20217;-80
2021/05/26 08:14:22;;;;;;;3.53;1.77;;;11.20;91.70;;;;;;5096259;28;20228;-79
2021/05/26 08:16:50;;;;;;;5.50;2.08;;;11.20;92.40;;;;;;5109170;28;20276;-78
2021/05/26 08:19:17;;;;;;;4.45;1.73;;;11.20;93.30;;;;;;5119036;28;20229;-80
2021/05/26 08:21:59;;;;;;;5.45;2.10;;;11.30;94.00;;;;;;5118576;28;20211;-79
2021/05/26 08:24:25;;;;;;;3.72;2.30;;;11.40;94.50;;;;;;5119211;28;20192;-79
2021/05/26 08:26:52;;;;;;;1.70;1.40;;;11.50;94.20;;;;;;5116524;28;20262;-79
2021/05/26 08:29:19;;;;;;;2.65;1.60;;;11.50;93.00;;;;;;5119521;28;20201;-80
2021/05/26 08:31:47;;;;;;;1.63;1.40;;;11.50;91.90;;;;;;5116920;28;20201;-81
2021/05/26 08:34:14;;;;;;;4.53;1.70;;;11.60;90.60;;;;;;5114923;28;20193;-79
2021/05/26 08:36:42;;;;;;;4.20;1.95;;;11.70;90.90;;;;;;5115137;28;20231;-81
2021/05/26 08:39:09;;;;;;;2.42;1.77;;;11.70;91.10;;;;;;5112697;28;20307;-80
2021/05/26 08:41:35;;;;;;;5.20;2.08;;;11.70;91.20;;;;;;5112222;28;20221;-81
2021/05/26 08:44:02;;;;;;;3.33;1.80;;;11.80;91.10;;;;;;5113385;28;20197;-80
2021/05/26 08:46:29;;;;;;;4.13;2.80;;;11.80;90.80;;;;;;5117478;28;20232;-80
2021/05/26 08:49:03;;;;;;;5.50;2.65;;;11.90;91.70;;;;;;5118623;28;20204;-80
2021/05/26 08:51:31;;;;;;;5.35;2.28;;;11.90;91.50;;;;;;5117303;28;20695;-81
2021/05/26 08:53:57;;;;;;;5.30;2.28;;;12.00;92.10;;;;;;5111407;28;20205;-79
2021/05/26 08:56:24;;;;;;;10.35;2.45;;;12.10;92.60;;;;;;5100198;28;20206;-81
2021/05/26 08:58:51;;;;;;;8.18;2.65;;;12.20;92.70;;;;;;5091621;28;20687;-79
2021/05/26 09:01:17;;;;;;;4.75;2.80;;;12.20;92.20;;;;;;5091611;28;20197;-81
2021/05/26 09:03:44;;;;;;;5.00;2.75;;;12.30;92.00;;;;;;5093897;28;20224;-79
2021/05/26 09:06:13;;;;;;;2.92;2.50;;;12.30;91.40;;;;;;5092739;28;20249;-79
2021/05/26 09:08:47;;;;;;;7.53;2.50;;;12.40;92.00;;;;;;5091306;28;20226;-81
2021/05/26 09:11:13;;;;;;;9.38;2.33;;;12.60;90.40;;;;;;5092011;28;20289;-80
2021/05/26 09:13:43;;;;;;;4.10;2.85;;;12.60;85.30;;;;;;5091420;28;20205;-79
2021/05/26 09:16:10;;;;;;;9.13;2.80;;;12.50;86.20;;;;;;5082100;28;20205;-79
2021/05/26 09:18:55;;;;;;;3.00;2.70;;;12.60;87.00;;;;;;5084765;28;20263;-79
2021/05/26 09:21:42;;;;;;;3.08;1.77;;;12.70;82.30;;;;;;5092092;28;20198;-80
2021/05/26 09:24:28;;;;;;;5.47;1.90;;;12.70;81.90;;;;;;5094849;28;20202;-79
2021/05/26 09:26:56;;;;;;;2.78;1.55;;;12.80;81.10;;;;;;5093120;28;20234;-81
2021/05/26 09:29:26;;;;;;;6.25;1.90;;;12.60;78.10;;;;;;5092973;28;20739;-80
2021/05/26 09:32:09;;;;;;;7.25;2.40;;;12.60;80.60;;;;;;5094227;28;20216;-80
2021/05/26 09:34:37;;;;;;;3.85;1.58;;;12.80;79.60;;;;;;5090939;28;20599;-78
2021/05/26 09:37:05;;;;;;;3.63;1.77;;;13.00;77.60;;;;;;5088092;28;20229;-78
2021/05/26 09:39:46;;;;;;;4.80;1.90;;;13.20;74.90;;;;;;5086158;28;20198;-78
2021/05/26 09:42:34;;;;;;;6.15;2.28;;;13.30;77.00;;;;;;5080841;28;20673;-78
2021/05/26 09:45:20;;;;;;;4.50;2.47;;;13.40;74.80;;;;;;5080004;28;20206;-80
2021/05/26 09:47:48;;;;;;;3.20;2.00;;;13.40;70.70;;;;;;5080736;28;20249;-79
2021/05/26 09:50:23;;;;;;;4.13;2.00;;;13.50;74.00;;;;;;5080517;28;20216;-77
2021/05/26 09:52:57;;;;;;;7.57;2.08;;;13.40;71.90;;;;;;5081007;28;20200;-79
2021/05/26 09:55:28;;;;;;;1.85;1.60;;;13.50;72.00;;;;;;5082969;28;20747;-79
2021/05/26 09:57:54;;;;;;;5.00;2.00;;;13.40;71.50;;;;;;5084405;28;20305;-77
2021/05/26 10:00:21;;;;;;;2.50;1.40;;;13.30;72.30;;;;;;5080304;28;20217;-78
2021/05/26 10:02:50;;;;;;;2.20;1.40;;;13.30;70.90;;;;;;5081918;28;20417;-78
2021/05/26 10:05:18;;;;;;;5.40;1.80;;;13.30;70.60;;;;;;5080959;28;20210;-80
2021/05/26 10:07:49;;;;;;;4.22;1.70;;;13.10;70.40;;;;;;5077598;28;20225;-79
2021/05/26 10:10:21;;;;;;;2.75;1.70;;;13.00;72.80;;;;;;5082452;28;20210;-77
2021/05/26 10:12:53;;;;;;;2.75;1.15;;;12.90;74.30;;;;;;5076024;28;20210;-78
2021/05/26 10:15:20;;;;;;;1.40;1.20;;;12.60;72.50;;;;;;5078148;28;20219;-80
2021/05/26 10:17:52;;;;;;;5.90;1.20;;;12.40;72.70;;;;;;5075250;28;20519;-79
2021/05/26 10:20:21;;;;;;;2.53;1.27;;;12.30;74.00;;;;;;5081690;28;20204;-78
2021/05/26 10:22:51;;;;;;;1.98;1.30;;;12.30;74.90;;;;;;5077613;28;20206;-78
2021/05/26 10:25:20;;;;;;;1.73;0.82;;;12.30;75.90;;;;;;5077908;28;20201;-78
2021/05/26 10:27:48;;;;;;;3.17;1.20;;;12.30;78.40;;;;;;5077971;28;20236;-78
2021/05/26 10:30:17;;;;;;;4.10;1.30;;;12.30;77.30;;;;;;5080920;28;20232;-77
2021/05/26 10:32:55;;;;;;;1.67;1.08;;;12.20;76.70;;;;;;5080626;28;20277;-78
2021/05/26 10:35:23;;;;;;;3.22;1.25;;;12.20;77.80;;;;;;5082346;28;20273;-78
2021/05/26 10:38:02;;;;;;;0.82;0.82;;;12.30;78.40;;;;;;5085641;28;20233;-77
2021/05/26 10:40:41;;;;;;;1.17;0.70;;;12.30;77.20;;;;;;5086276;28;20201;-79
2021/05/26 10:43:31;;;;;;;1.13;0.90;;;12.50;74.20;;;;;;5086111;28;20296;-78
2021/05/26 10:46:00;;;;;;;2.58;0.95;;;12.60;73.30;;;;;;5091468;28;20240;-78
2021/05/26 10:49:00;;;;;;;1.52;0.77;;;12.70;72.30;;;;;;5092102;28;20233;-78
2021/05/26 10:52:05;;;;;;;2.47;0.90;;;12.70;70.00;;;;;;5085098;28;20275;-81
2021/05/26 10:54:59;;;;;;;2.10;1.00;;;12.60;70.00;;;;;;5083366;28;20209;-80
2021/05/26 10:57:28;;;;;;;2.35;0.88;;;12.80;72.20;;;;;;5085269;28;20720;-79
2021/05/26 11:00:29;;;;;;;1.00;0.75;;;12.90;70.20;;;;;;5085674;28;20231;-77
2021/05/26 11:03:33;;;;;;;1.73;0.80;;;12.90;68.40;;;;;;5085514;28;20233;-78
2021/05/26 11:06:01;;;;;;;1.20;0.95;;;12.80;67.50;;;;;;5093237;28;20293;-78
2021/05/26 11:08:34;;;;;;;2.30;0.88;;;12.70;68.80;;;;;;5094562;28;20245;-79
2021/05/26 11:11:38;;;;;;;1.55;1.13;;;12.80;69.10;;;;;;5082441;28;20210;-77
2021/05/26 11:14:24;;;;;;;6.25;1.02;;;12.70;67.20;;;;;;5080365;28;20212;-78
2021/05/26 11:17:37;;;;;;;1.67;0.95;;;12.70;67.10;;;;;;5080214;28;20245;-78
2021/05/26 11:20:21;;;;;;;0.93;0.70;;;12.90;68.40;;;;;;5079225;28;20204;-78
2021/05/26 11:22:48;;;;;;;1.23;1.13;;;13.00;65.90;;;;;;5079697;28;20253;-78
2021/05/26 11:25:16;;;;;;;1.55;1.02;;;13.10;65.90;;;;;;5080297;28;20564;-79
2021/05/26 11:27:53;;;;;;;1.40;1.02;;;13.10;63.80;;;;;;5081485;28;20253;-79
2021/05/26 11:30:24;;;;;;;1.10;0.80;;;13.10;63.50;;;;;;5086031;28;20209;-80
2021/05/26 11:32:58;;;;;;;2.60;0.98;;;13.20;62.20;;;;;;5083583;28;20201;-78
2021/05/26 11:35:25;;;;;;;1.45;1.33;;;13.40;61.80;;;;;;5085394;28;20202;-77
2021/05/26 11:37:52;;;;;;;1.20;0.95;;;13.50;61.80;;;;;;5084401;28;20850;-78
2021/05/26 11:40:29;;;;;;;1.60;1.00;;;13.50;63.10;;;;;;5077527;28;20560;-79
2021/05/26 11:43:12;;;;;;;2.58;1.60;;;13.50;62.50;;;;;;5076169;28;20300;-78
2021/05/26 11:45:40;;;;;;;5.30;1.40;;;13.50;61.80;;;;;;5078480;28;20222;-79
2021/05/26 11:48:07;;;;;;;2.40;1.00;;;13.40;61.80;;;;;;5079155;28;20818;-78
2021/05/26 11:50:35;;;;;;;2.40;1.02;;;13.30;61.70;;;;;;5079144;28;20292;-78
2021/05/26 11:53:19;;;;;;;2.38;1.25;;;13.30;61.70;;;;;;5079663;28;20213;-79
2021/05/26 11:55:48;;;;;;;3.15;1.25;;;13.30;60.60;;;;;;5080740;28;20688;-78
2021/05/26 11:58:28;;;;;;;3.30;1.05;;;13.20;60.90;;;;;;5085854;28;20225;-78
2021/05/26 12:01:03;;;;;;;3.08;1.00;;;13.40;60.90;;;;;;5093160;28;20220;-77
2021/05/26 12:03:31;;;;;;;1.48;1.23;;;13.50;60.20;;;;;;5094507;28;20209;-78
2021/05/26 12:05:57;;;;;;;4.90;1.38;;;13.60;59.10;;;;;;5089466;28;20236;-79
2021/05/26 12:08:26;;;;;;;2.63;1.17;;;13.70;58.80;;;;;;5081887;28;20237;-78
2021/05/26 12:10:55;;;;;;;5.05;0.95;;;13.60;58.80;;;;;;5080600;28;20233;-78
2021/05/26 12:13:23;;;;;;;2.38;1.15;;;13.60;59.00;;;;;;5081184;28;20255;-78
2021/05/26 12:15:50;;;;;;;1.75;1.08;;;13.60;60.20;;;;;;5080089;28;20230;-77
2021/05/26 12:18:18;;;;;;;1.65;1.10;;;13.50;61.30;;;;;;5119164;22;20617;-82
2021/05/26 12:20:47;;;;;;;0.98;0.95;;;13.40;61.80;;;;;;5123563;28;20208;-79
2021/05/26 12:23:14;;;;;;;4.75;1.10;;;13.40;61.80;;;;;;5121114;28;20703;-79
2021/05/26 12:25:43;;;;;;;1.10;0.90;;;13.50;62.70;;;;;;5122150;28;20634;-80
2021/05/26 12:28:18;;;;;;;1.60;1.50;;;13.50;61.80;;;;;;5119493;28;20686;-82
2021/05/26 12:30:46;;;;;;;2.90;1.40;;;13.50;62.60;;;;;;5122440;28;20204;-81
2021/05/26 12:33:15;;;;;;;3.78;1.88;;;13.50;64.50;;;;;;5123655;28;20223;-80
2021/05/26 12:35:43;;;;;;;2.15;1.10;;;13.50;67.20;;;;;;5124187;28;20290;-80
2021/05/26 12:38:17;;;;;;;1.33;1.10;;;13.60;66.50;;;;;;5121879;28;20351;-80
2021/05/26 12:40:44;;;;;;;2.90;1.05;;;13.80;66.60;;;;;;5123082;28;20298;-81
2021/05/26 12:43:30;;;;;;;1.52;0.80;;;14.00;64.30;;;;;;5123818;28;20303;-80
2021/05/26 12:45:57;;;;;;;1.20;1.00;;;14.40;59.70;;;;;;5124786;28;20263;-79
2021/05/26 12:48:32;;;;;;;2.10;1.02;;;14.80;57.30;;;;;;5122443;28;20217;-79
2021/05/26 12:51:00;;;;;;;2.80;0.80;;;15.00;56.30;;;;;;5124292;28;20257;-82
2021/05/26 12:53:32;;;;;;;2.70;0.95;;;14.90;59.00;;;;;;5133379;28;20260;-80
2021/05/26 12:56:00;;;;;;;3.25;0.95;;;14.30;65.40;;;;;;5136455;28;20640;-80
2021/05/26 12:58:27;;;;;;;2.25;1.25;;;14.00;68.20;;;;;;5132274;28;20259;-82
2021/05/26 13:01:06;;;;;;;1.92;1.27;;;13.60;70.80;;;;;;5136712;28;20212;-81